sensor_id;sensor_type;location;lat;lon;timestamp;pressure;altitude;pressure_sealevel;temperature
74321;BMP280;62738;45.772;4.804;2022-12-18T00:02:12;100575.88;;;1.92
74321;BMP280;62738;45.772;4.804;2022-12-18T00:04:39;100574.56;;;1.67
74321;BMP280;62738;45.772;4.804;2022-12-18T00:07:06;100573.63;;;1.70
74321;BMP280;62738;45.772;4.804;2022-12-18T00:09:32;100577.81;;;1.51
74321;BMP280;62738;45.772;4.804;2022-12-18T00:12:06;100574.66;;;1.73
74321;BMP280;62738;45.772;4.804;2022-12-18T00:14:43;100562.63;;;1.85
74321;BMP280;62738;45.772;4.804;2022-12-18T00:17:10;100565.59;;;1.82
74321;BMP280;62738;45.772;4.804;2022-12-18T00:19:37;100561.66;;;1.88
74321;BMP280;62738;45.772;4.804;2022-12-18T00:22:03;100561.81;;;1.99
74321;BMP280;62738;45.772;4.804;2022-12-18T00:24:31;100567.97;;;1.74
74321;BMP280;62738;45.772;4.804;2022-12-18T00:26:58;100565.91;;;1.69
74321;BMP280;62738;45.772;4.804;2022-12-18T00:29:24;100579.75;;;1.80
74321;BMP280;62738;45.772;4.804;2022-12-18T00:31:51;100583.06;;;1.90
74321;BMP280;62738;45.772;4.804;2022-12-18T00:34:17;100570.13;;;1.70
74321;BMP280;62738;45.772;4.804;2022-12-18T00:36:47;100575.31;;;1.83
74321;BMP280;62738;45.772;4.804;2022-12-18T00:39:13;100571.91;;;1.93
74321;BMP280;62738;45.772;4.804;2022-12-18T00:41:40;100566.38;;;1.88
74321;BMP280;62738;45.772;4.804;2022-12-18T00:44:25;100568.97;;;2.17
74321;BMP280;62738;45.772;4.804;2022-12-18T00:46:52;100566.25;;;1.97
74321;BMP280;62738;45.772;4.804;2022-12-18T00:49:19;100568.72;;;1.95
74321;BMP280;62738;45.772;4.804;2022-12-18T00:51:47;100563.25;;;1.75
74321;BMP280;62738;45.772;4.804;2022-12-18T00:54:14;100563.16;;;1.89
74321;BMP280;62738;45.772;4.804;2022-12-18T00:56:41;100564.81;;;2.22
74321;BMP280;62738;45.772;4.804;2022-12-18T00:59:18;100566.97;;;2.12
74321;BMP280;62738;45.772;4.804;2022-12-18T01:01:45;100566.41;;;2.08
74321;BMP280;62738;45.772;4.804;2022-12-18T01:04:12;100569.81;;;2.23
74321;BMP280;62738;45.772;4.804;2022-12-18T01:06:39;100567.28;;;1.99
74321;BMP280;62738;45.772;4.804;2022-12-18T01:09:06;100572.19;;;1.95
74321;BMP280;62738;45.772;4.804;2022-12-18T01:11:33;100572.94;;;1.96
74321;BMP280;62738;45.772;4.804;2022-12-18T01:13:59;100577.19;;;2.37
74321;BMP280;62738;45.772;4.804;2022-12-18T01:16:26;100579.53;;;2.24
74321;BMP280;62738;45.772;4.804;2022-12-18T01:18:54;100569.34;;;2.04
74321;BMP280;62738;45.772;4.804;2022-12-18T01:21:22;100586.66;;;1.61
74321;BMP280;62738;45.772;4.804;2022-12-18T01:23:53;100585.75;;;1.49
74321;BMP280;62738;45.772;4.804;2022-12-18T01:26:20;100578.63;;;1.92
74321;BMP280;62738;45.772;4.804;2022-12-18T01:28:47;100581.75;;;1.65
74321;BMP280;62738;45.772;4.804;2022-12-18T01:31:26;100586.63;;;1.76
74321;BMP280;62738;45.772;4.804;2022-12-18T01:33:54;100586.91;;;2.18
74321;BMP280;62738;45.772;4.804;2022-12-18T01:36:24;100594.25;;;2.06
74321;BMP280;62738;45.772;4.804;2022-12-18T01:38:51;100597.19;;;2.03
74321;BMP280;62738;45.772;4.804;2022-12-18T01:41:21;100591.75;;;1.88
74321;BMP280;62738;45.772;4.804;2022-12-18T01:43:57;100589.25;;;2.25
74321;BMP280;62738;45.772;4.804;2022-12-18T01:46:27;100591.81;;;2.55
74321;BMP280;62738;45.772;4.804;2022-12-18T01:48:56;100595.59;;;2.37
74321;BMP280;62738;45.772;4.804;2022-12-18T01:51:24;100593.69;;;2.23
74321;BMP280;62738;45.772;4.804;2022-12-18T01:53:52;100593.03;;;2.28
74321;BMP280;62738;45.772;4.804;2022-12-18T01:56:20;100597.88;;;2.18
74321;BMP280;62738;45.772;4.804;2022-12-18T01:58:55;100596.16;;;2.00
74321;BMP280;62738;45.772;4.804;2022-12-18T02:06:46;100600.72;;;2.50
74321;BMP280;62738;45.772;4.804;2022-12-18T02:09:21;100596.91;;;2.21
74321;BMP280;62738;45.772;4.804;2022-12-18T02:14:38;100609.44;;;2.28
74321;BMP280;62738;45.772;4.804;2022-12-18T02:22:58;100607.38;;;2.23
74321;BMP280;62738;45.772;4.804;2022-12-18T02:28:09;100613.06;;;2.19
74321;BMP280;62738;45.772;4.804;2022-12-18T02:30:38;100610.94;;;2.09
74321;BMP280;62738;45.772;4.804;2022-12-18T02:33:08;100609.97;;;2.32
74321;BMP280;62738;45.772;4.804;2022-12-18T02:35:36;100620.66;;;2.30
74321;BMP280;62738;45.772;4.804;2022-12-18T02:38:03;100619.75;;;1.98
74321;BMP280;62738;45.772;4.804;2022-12-18T02:40:30;100618.50;;;2.14
74321;BMP280;62738;45.772;4.804;2022-12-18T02:43:12;100623.91;;;1.93
74321;BMP280;62738;45.772;4.804;2022-12-18T02:45:48;100627.09;;;2.06
74321;BMP280;62738;45.772;4.804;2022-12-18T02:48:17;100630.81;;;1.89
74321;BMP280;62738;45.772;4.804;2022-12-18T02:50:51;100628.88;;;2.10
74321;BMP280;62738;45.772;4.804;2022-12-18T02:53:35;100629.47;;;1.99
74321;BMP280;62738;45.772;4.804;2022-12-18T02:56:18;100631.44;;;1.98
74321;BMP280;62738;45.772;4.804;2022-12-18T02:59:16;100630.84;;;2.09
74321;BMP280;62738;45.772;4.804;2022-12-18T03:04:59;100634.50;;;2.41
74321;BMP280;62738;45.772;4.804;2022-12-18T03:07:42;100636.13;;;2.53
74321;BMP280;62738;45.772;4.804;2022-12-18T03:10:18;100641.69;;;2.38
74321;BMP280;62738;45.772;4.804;2022-12-18T03:12:59;100643.66;;;2.58
74321;BMP280;62738;45.772;4.804;2022-12-18T03:15:45;100634.00;;;2.42
74321;BMP280;62738;45.772;4.804;2022-12-18T03:18:25;100632.63;;;2.32
74321;BMP280;62738;45.772;4.804;2022-12-18T03:20:55;100639.06;;;2.75
74321;BMP280;62738;45.772;4.804;2022-12-18T03:23:27;100628.72;;;2.59
74321;BMP280;62738;45.772;4.804;2022-12-18T03:25:57;100627.88;;;2.27
74321;BMP280;62738;45.772;4.804;2022-12-18T03:28:36;100625.31;;;2.24
74321;BMP280;62738;45.772;4.804;2022-12-18T03:31:04;100629.97;;;2.38
74321;BMP280;62738;45.772;4.804;2022-12-18T03:33:44;100634.50;;;2.41
74321;BMP280;62738;45.772;4.804;2022-12-18T03:36:13;100627.78;;;2.22
74321;BMP280;62738;45.772;4.804;2022-12-18T03:38:40;100631.41;;;2.13
74321;BMP280;62738;45.772;4.804;2022-12-18T03:41:17;100620.94;;;2.12
74321;BMP280;62738;45.772;4.804;2022-12-18T03:43:55;100619.84;;;2.03
74321;BMP280;62738;45.772;4.804;2022-12-18T03:46:41;100612.31;;;2.39
74321;BMP280;62738;45.772;4.804;2022-12-18T03:49:14;100618.72;;;2.56
74321;BMP280;62738;45.772;4.804;2022-12-18T03:51:49;100617.72;;;2.33
74321;BMP280;62738;45.772;4.804;2022-12-18T03:54:17;100613.34;;;2.67
74321;BMP280;62738;45.772;4.804;2022-12-18T03:56:47;100613.25;;;2.36
74321;BMP280;62738;45.772;4.804;2022-12-18T03:59:16;100612.59;;;2.21
74321;BMP280;62738;45.772;4.804;2022-12-18T04:01:47;100616.69;;;2.31
74321;BMP280;62738;45.772;4.804;2022-12-18T04:04:16;100610.63;;;2.47
74321;BMP280;62738;45.772;4.804;2022-12-18T04:06:45;100613.34;;;2.21
74321;BMP280;62738;45.772;4.804;2022-12-18T04:09:13;100610.47;;;2.10
74321;BMP280;62738;45.772;4.804;2022-12-18T04:11:41;100609.28;;;2.17
74321;BMP280;62738;45.772;4.804;2022-12-18T04:14:11;100614.91;;;2.08
74321;BMP280;62738;45.772;4.804;2022-12-18T04:16:43;100617.84;;;2.04
74321;BMP280;62738;45.772;4.804;2022-12-18T04:19:10;100618.72;;;2.16
74321;BMP280;62738;45.772;4.804;2022-12-18T04:21:36;100619.72;;;2.13
74321;BMP280;62738;45.772;4.804;2022-12-18T04:24:03;100622.69;;;2.15
74321;BMP280;62738;45.772;4.804;2022-12-18T04:26:30;100619.97;;;2.15
74321;BMP280;62738;45.772;4.804;2022-12-18T04:28:56;100626.69;;;2.14
74321;BMP280;62738;45.772;4.804;2022-12-18T04:31:23;100625.66;;;2.11
74321;BMP280;62738;45.772;4.804;2022-12-18T04:33:49;100638.94;;;2.59
74321;BMP280;62738;45.772;4.804;2022-12-18T04:36:16;100627.44;;;2.34
74321;BMP280;62738;45.772;4.804;2022-12-18T04:38:43;100625.19;;;2.13
74321;BMP280;62738;45.772;4.804;2022-12-18T04:41:12;100628.81;;;2.24
74321;BMP280;62738;45.772;4.804;2022-12-18T04:43:39;100628.13;;;2.09
74321;BMP280;62738;45.772;4.804;2022-12-18T04:46:07;100622.97;;;1.96
74321;BMP280;62738;45.772;4.804;2022-12-18T04:48:36;100633.44;;;1.98
74321;BMP280;62738;45.772;4.804;2022-12-18T04:51:04;100632.91;;;2.14
74321;BMP280;62738;45.772;4.804;2022-12-18T04:53:31;100632.31;;;2.25
74321;BMP280;62738;45.772;4.804;2022-12-18T04:56:12;100633.53;;;2.03
74321;BMP280;62738;45.772;4.804;2022-12-18T04:58:40;100628.16;;;1.94
74321;BMP280;62738;45.772;4.804;2022-12-18T05:01:08;100634.06;;;2.08
74321;BMP280;62738;45.772;4.804;2022-12-18T05:03:36;100640.69;;;2.01
74321;BMP280;62738;45.772;4.804;2022-12-18T05:06:05;100637.06;;;2.30
74321;BMP280;62738;45.772;4.804;2022-12-18T05:08:32;100633.38;;;2.33
74321;BMP280;62738;45.772;4.804;2022-12-18T05:11:07;100632.91;;;2.14
74321;BMP280;62738;45.772;4.804;2022-12-18T05:13:35;100640.56;;;2.30
74321;BMP280;62738;45.772;4.804;2022-12-18T05:16:02;100634.47;;;2.21
74321;BMP280;62738;45.772;4.804;2022-12-18T05:18:30;100640.44;;;2.19
74321;BMP280;62738;45.772;4.804;2022-12-18T05:20:57;100632.88;;;1.94
74321;BMP280;62738;45.772;4.804;2022-12-18T05:23:24;100651.44;;;2.04
74321;BMP280;62738;45.772;4.804;2022-12-18T05:25:53;100645.72;;;2.23
74321;BMP280;62738;45.772;4.804;2022-12-18T05:28:21;100654.75;;;2.29
74321;BMP280;62738;45.772;4.804;2022-12-18T05:30:53;100661.84;;;2.00
74321;BMP280;62738;45.772;4.804;2022-12-18T05:33:22;100662.22;;;2.28
74321;BMP280;62738;45.772;4.804;2022-12-18T05:35:53;100649.59;;;2.16
74321;BMP280;62738;45.772;4.804;2022-12-18T05:38:21;100659.41;;;1.88
74321;BMP280;62738;45.772;4.804;2022-12-18T05:40:49;100655.22;;;2.07
74321;BMP280;62738;45.772;4.804;2022-12-18T05:43:16;100657.63;;;2.20
74321;BMP280;62738;45.772;4.804;2022-12-18T05:45:47;100669.94;;;2.30
74321;BMP280;62738;45.772;4.804;2022-12-18T05:48:14;100663.78;;;2.35
74321;BMP280;62738;45.772;4.804;2022-12-18T05:50:43;100673.81;;;2.03
74321;BMP280;62738;45.772;4.804;2022-12-18T05:53:13;100676.91;;;2.11
74321;BMP280;62738;45.772;4.804;2022-12-18T05:55:40;100682.63;;;2.27
74321;BMP280;62738;45.772;4.804;2022-12-18T05:58:08;100681.44;;;2.14
74321;BMP280;62738;45.772;4.804;2022-12-18T06:00:37;100675.84;;;2.23
74321;BMP280;62738;45.772;4.804;2022-12-18T06:03:07;100682.06;;;2.23
74321;BMP280;62738;45.772;4.804;2022-12-18T06:05:38;100692.66;;;2.16
74321;BMP280;62738;45.772;4.804;2022-12-18T06:08:05;100690.59;;;2.31
74321;BMP280;62738;45.772;4.804;2022-12-18T06:10:34;100688.03;;;2.42
74321;BMP280;62738;45.772;4.804;2022-12-18T06:13:01;100689.47;;;2.37
74321;BMP280;62738;45.772;4.804;2022-12-18T06:15:27;100699.75;;;2.42
74321;BMP280;62738;45.772;4.804;2022-12-18T06:17:54;100693.34;;;2.11
74321;BMP280;62738;45.772;4.804;2022-12-18T06:20:21;100705.81;;;2.12
74321;BMP280;62738;45.772;4.804;2022-12-18T06:22:48;100700.38;;;2.17
74321;BMP280;62738;45.772;4.804;2022-12-18T06:25:15;100695.84;;;2.29
74321;BMP280;62738;45.772;4.804;2022-12-18T06:27:41;100704.31;;;2.31
74321;BMP280;62738;45.772;4.804;2022-12-18T06:30:09;100709.31;;;1.97
74321;BMP280;62738;45.772;4.804;2022-12-18T06:32:36;100722.84;;;1.86
74321;BMP280;62738;45.772;4.804;2022-12-18T06:35:03;100715.38;;;2.22
74321;BMP280;62738;45.772;4.804;2022-12-18T06:37:31;100714.28;;;2.14
74321;BMP280;62738;45.772;4.804;2022-12-18T06:39:57;100710.94;;;2.45
74321;BMP280;62738;45.772;4.804;2022-12-18T06:42:24;100715.09;;;2.20
74321;BMP280;62738;45.772;4.804;2022-12-18T06:44:51;100722.78;;;2.36
74321;BMP280;62738;45.772;4.804;2022-12-18T06:47:18;100721.56;;;2.37
74321;BMP280;62738;45.772;4.804;2022-12-18T06:49:45;100715.09;;;2.20
74321;BMP280;62738;45.772;4.804;2022-12-18T06:52:11;100721.06;;;2.18
74321;BMP280;62738;45.772;4.804;2022-12-18T06:54:38;100726.34;;;2.22
74321;BMP280;62738;45.772;4.804;2022-12-18T06:57:04;100727.19;;;2.48
74321;BMP280;62738;45.772;4.804;2022-12-18T06:59:31;100731.91;;;2.48
74321;BMP280;62738;45.772;4.804;2022-12-18T07:01:58;100728.34;;;2.41
74321;BMP280;62738;45.772;4.804;2022-12-18T07:04:31;100726.09;;;2.05
74321;BMP280;62738;45.772;4.804;2022-12-18T07:06:58;100734.84;;;2.24
74321;BMP280;62738;45.772;4.804;2022-12-18T07:09:24;100730.16;;;2.10
74321;BMP280;62738;45.772;4.804;2022-12-18T07:11:52;100739.41;;;2.12
74321;BMP280;62738;45.772;4.804;2022-12-18T07:14:18;100734.75;;;2.18
74321;BMP280;62738;45.772;4.804;2022-12-18T07:16:46;100745.69;;;2.18
74321;BMP280;62738;45.772;4.804;2022-12-18T07:19:13;100742.53;;;2.05
74321;BMP280;62738;45.772;4.804;2022-12-18T07:21:39;100743.75;;;1.89
74321;BMP280;62738;45.772;4.804;2022-12-18T07:24:07;100749.78;;;1.93
74321;BMP280;62738;45.772;4.804;2022-12-18T07:26:33;100742.13;;;2.12
74321;BMP280;62738;45.772;4.804;2022-12-18T07:29:00;100746.56;;;1.95
74321;BMP280;62738;45.772;4.804;2022-12-18T07:31:27;100750.19;;;1.86
74321;BMP280;62738;45.772;4.804;2022-12-18T07:33:54;100746.38;;;2.13
74321;BMP280;62738;45.772;4.804;2022-12-18T07:36:23;100743.28;;;2.05
74321;BMP280;62738;45.772;4.804;2022-12-18T07:38:50;100745.34;;;2.11
74321;BMP280;62738;45.772;4.804;2022-12-18T07:41:18;100745.19;;;2.34
74321;BMP280;62738;45.772;4.804;2022-12-18T07:43:45;100741.69;;;2.34
74321;BMP280;62738;45.772;4.804;2022-12-18T07:46:13;100744.97;;;2.38
74321;BMP280;62738;45.772;4.804;2022-12-18T07:48:44;100754.81;;;2.30
74321;BMP280;62738;45.772;4.804;2022-12-18T07:51:16;100763.53;;;2.28
74321;BMP280;62738;45.772;4.804;2022-12-18T07:53:43;100760.34;;;2.15
74321;BMP280;62738;45.772;4.804;2022-12-18T07:56:11;100753.00;;;2.41
74321;BMP280;62738;45.772;4.804;2022-12-18T07:58:56;100751.16;;;2.18
74321;BMP280;62738;45.772;4.804;2022-12-18T08:01:23;100758.34;;;2.51
74321;BMP280;62738;45.772;4.804;2022-12-18T08:03:50;100746.69;;;2.35
74321;BMP280;62738;45.772;4.804;2022-12-18T08:06:18;100750.13;;;2.51
74321;BMP280;62738;45.772;4.804;2022-12-18T08:08:51;100755.31;;;2.49
74321;BMP280;62738;45.772;4.804;2022-12-18T08:11:17;100748.63;;;2.29
74321;BMP280;62738;45.772;4.804;2022-12-18T08:13:45;100745.50;;;2.22
74321;BMP280;62738;45.772;4.804;2022-12-18T08:16:11;100742.16;;;2.32
74321;BMP280;62738;45.772;4.804;2022-12-18T08:18:38;100753.94;;;2.38
74321;BMP280;62738;45.772;4.804;2022-12-18T08:21:09;100750.75;;;2.40
74321;BMP280;62738;45.772;4.804;2022-12-18T08:23:36;100744.66;;;2.51
74321;BMP280;62738;45.772;4.804;2022-12-18T08:26:09;100751.22;;;2.38
74321;BMP280;62738;45.772;4.804;2022-12-18T08:28:36;100746.09;;;2.11
74321;BMP280;62738;45.772;4.804;2022-12-18T08:31:02;100741.00;;;2.39
74321;BMP280;62738;45.772;4.804;2022-12-18T08:33:30;100747.31;;;2.65
74321;BMP280;62738;45.772;4.804;2022-12-18T08:35:58;100747.00;;;2.58
74321;BMP280;62738;45.772;4.804;2022-12-18T08:38:24;100748.34;;;2.48
74321;BMP280;62738;45.772;4.804;2022-12-18T08:41:04;100741.66;;;2.69
74321;BMP280;62738;45.772;4.804;2022-12-18T08:43:31;100749.81;;;2.63
74321;BMP280;62738;45.772;4.804;2022-12-18T08:46:21;100743.97;;;2.56
74321;BMP280;62738;45.772;4.804;2022-12-18T08:48:49;100759.16;;;2.36
74321;BMP280;62738;45.772;4.804;2022-12-18T08:51:17;100752.16;;;2.35
74321;BMP280;62738;45.772;4.804;2022-12-18T08:53:44;100749.56;;;2.26
74321;BMP280;62738;45.772;4.804;2022-12-18T08:56:12;100747.44;;;2.76
74321;BMP280;62738;45.772;4.804;2022-12-18T08:58:39;100748.16;;;2.71
74321;BMP280;62738;45.772;4.804;2022-12-18T09:01:07;100747.31;;;2.65
74321;BMP280;62738;45.772;4.804;2022-12-18T09:03:35;100755.69;;;2.56
74321;BMP280;62738;45.772;4.804;2022-12-18T09:06:03;100748.44;;;2.73
74321;BMP280;62738;45.772;4.804;2022-12-18T09:08:29;100750.75;;;2.81
74321;BMP280;62738;45.772;4.804;2022-12-18T09:10:56;100756.38;;;2.92
74321;BMP280;62738;45.772;4.804;2022-12-18T09:13:23;100750.06;;;2.86
74321;BMP280;62738;45.772;4.804;2022-12-18T09:15:52;100760.28;;;2.85
74321;BMP280;62738;45.772;4.804;2022-12-18T09:18:20;100763.78;;;2.86
74321;BMP280;62738;45.772;4.804;2022-12-18T09:20:47;100767.81;;;2.90
74321;BMP280;62738;45.772;4.804;2022-12-18T09:23:14;100770.13;;;2.77
74321;BMP280;62738;45.772;4.804;2022-12-18T09:25:41;100764.38;;;2.55
74321;BMP280;62738;45.772;4.804;2022-12-18T09:28:15;100760.81;;;2.69
74321;BMP280;62738;45.772;4.804;2022-12-18T09:30:45;100775.28;;;2.90
74321;BMP280;62738;45.772;4.804;2022-12-18T09:33:12;100778.34;;;2.97
74321;BMP280;62738;45.772;4.804;2022-12-18T09:35:41;100778.63;;;3.20
74321;BMP280;62738;45.772;4.804;2022-12-18T09:38:12;100781.78;;;3.12
74321;BMP280;62738;45.772;4.804;2022-12-18T09:40:44;100773.81;;;3.15
74321;BMP280;62738;45.772;4.804;2022-12-18T09:43:40;100785.25;;;3.13
74321;BMP280;62738;45.772;4.804;2022-12-18T09:46:11;100787.25;;;3.12
74321;BMP280;62738;45.772;4.804;2022-12-18T09:48:45;100782.59;;;3.19
74321;BMP280;62738;45.772;4.804;2022-12-18T09:51:18;100777.41;;;3.26
74321;BMP280;62738;45.772;4.804;2022-12-18T09:54:14;100764.94;;;3.25
74321;BMP280;62738;45.772;4.804;2022-12-18T09:56:43;100772.69;;;3.27
74321;BMP280;62738;45.772;4.804;2022-12-18T09:59:20;100768.88;;;3.44
74321;BMP280;62738;45.772;4.804;2022-12-18T10:01:47;100762.91;;;3.46
74321;BMP280;62738;45.772;4.804;2022-12-18T10:04:14;100764.03;;;3.60
74321;BMP280;62738;45.772;4.804;2022-12-18T10:07:15;100766.25;;;3.56
74321;BMP280;62738;45.772;4.804;2022-12-18T10:15:39;100760.56;;;4.33
74321;BMP280;62738;45.772;4.804;2022-12-18T10:21:15;100755.59;;;4.00
74321;BMP280;62738;45.772;4.804;2022-12-18T10:24:45;100754.41;;;4.07
74321;BMP280;62738;45.772;4.804;2022-12-18T10:26:41;100740.59;;;3.90
74321;BMP280;62738;45.772;4.804;2022-12-18T10:29:13;100744.78;;;4.23
74321;BMP280;62738;45.772;4.804;2022-12-18T10:31:40;100741.00;;;4.20
74321;BMP280;62738;45.772;4.804;2022-12-18T10:34:14;100740.44;;;4.10
74321;BMP280;62738;45.772;4.804;2022-12-18T10:36:41;100741.22;;;4.11
74321;BMP280;62738;45.772;4.804;2022-12-18T10:39:23;100733.22;;;4.13
74321;BMP280;62738;45.772;4.804;2022-12-18T10:41:50;100736.38;;;4.00
74321;BMP280;62738;45.772;4.804;2022-12-18T10:44:22;100742.66;;;4.06
74321;BMP280;62738;45.772;4.804;2022-12-18T10:47:04;100736.66;;;3.65
74321;BMP280;62738;45.772;4.804;2022-12-18T10:49:40;100738.47;;;3.79
74321;BMP280;62738;45.772;4.804;2022-12-18T10:52:17;100742.69;;;3.43
74321;BMP280;62738;45.772;4.804;2022-12-18T10:54:55;100747.13;;;3.35
74321;BMP280;62738;45.772;4.804;2022-12-18T10:57:31;100733.28;;;3.24
74321;BMP280;62738;45.772;4.804;2022-12-18T11:00:00;100724.75;;;3.17
74321;BMP280;62738;45.772;4.804;2022-12-18T11:02:37;100714.38;;;3.06
74321;BMP280;62738;45.772;4.804;2022-12-18T11:05:24;100709.63;;;3.27
74321;BMP280;62738;45.772;4.804;2022-12-18T11:07:51;100700.81;;;3.48
74321;BMP280;62738;45.772;4.804;2022-12-18T11:10:22;100711.06;;;3.48
74321;BMP280;62738;45.772;4.804;2022-12-18T11:12:51;100712.94;;;3.62
74321;BMP280;62738;45.772;4.804;2022-12-18T11:15:27;100700.94;;;3.60
74321;BMP280;62738;45.772;4.804;2022-12-18T11:17:56;100712.75;;;3.77
74321;BMP280;62738;45.772;4.804;2022-12-18T11:22:58;100700.47;;;3.67
74321;BMP280;62738;45.772;4.804;2022-12-18T11:25:28;100704.00;;;3.73
74321;BMP280;62738;45.772;4.804;2022-12-18T11:28:02;100694.78;;;3.76
74321;BMP280;62738;45.772;4.804;2022-12-18T11:30:29;100700.53;;;3.72
74321;BMP280;62738;45.772;4.804;2022-12-18T11:33:04;100694.00;;;3.70
74321;BMP280;62738;45.772;4.804;2022-12-18T11:40:42;100677.75;;;4.03
74321;BMP280;62738;45.772;4.804;2022-12-18T11:43:17;100678.53;;;4.09
74321;BMP280;62738;45.772;4.804;2022-12-18T11:45:52;100685.72;;;4.01
74321;BMP280;62738;45.772;4.804;2022-12-18T11:48:24;100678.03;;;4.11
74321;BMP280;62738;45.772;4.804;2022-12-18T11:50:56;100674.75;;;4.55
74321;BMP280;62738;45.772;4.804;2022-12-18T11:53:24;100674.56;;;4.16
74321;BMP280;62738;45.772;4.804;2022-12-18T11:59:29;100654.00;;;4.54
74321;BMP280;62738;45.772;4.804;2022-12-18T12:07:35;100638.03;;;4.80
74321;BMP280;62738;45.772;4.804;2022-12-18T12:10:41;100644.34;;;5.09
74321;BMP280;62738;45.772;4.804;2022-12-18T12:24:49;100632.31;;;5.40
74321;BMP280;62738;45.772;4.804;2022-12-18T12:32:32;100624.56;;;5.38
74321;BMP280;62738;45.772;4.804;2022-12-18T12:40:27;100611.69;;;5.80
74321;BMP280;62738;45.772;4.804;2022-12-18T12:46:08;100590.84;;;6.01
74321;BMP280;62738;45.772;4.804;2022-12-18T12:48:40;100590.34;;;5.97
74321;BMP280;62738;45.772;4.804;2022-12-18T12:51:33;100590.50;;;6.16
74321;BMP280;62738;45.772;4.804;2022-12-18T12:54:03;100582.94;;;6.22
74321;BMP280;62738;45.772;4.804;2022-12-18T12:56:49;100585.19;;;6.18
74321;BMP280;62738;45.772;4.804;2022-12-18T13:07:15;100574.28;;;6.42
74321;BMP280;62738;45.772;4.804;2022-12-18T13:13:18;100576.16;;;6.64
74321;BMP280;62738;45.772;4.804;2022-12-18T13:16:07;100573.41;;;6.64
74321;BMP280;62738;45.772;4.804;2022-12-18T13:18:34;100582.34;;;6.70
74321;BMP280;62738;45.772;4.804;2022-12-18T13:24:36;100575.69;;;6.90
74321;BMP280;62738;45.772;4.804;2022-12-18T13:38:35;100558.38;;;6.89
74321;BMP280;62738;45.772;4.804;2022-12-18T13:43:45;100551.50;;;7.01
74321;BMP280;62738;45.772;4.804;2022-12-18T13:48:52;100549.84;;;7.17
74321;BMP280;62738;45.772;4.804;2022-12-18T13:51:20;100546.22;;;7.28
74321;BMP280;62738;45.772;4.804;2022-12-18T13:54:02;100530.56;;;7.11
74321;BMP280;62738;45.772;4.804;2022-12-18T13:56:33;100530.66;;;7.30
74321;BMP280;62738;45.772;4.804;2022-12-18T14:01:44;100538.31;;;7.37
74321;BMP280;62738;45.772;4.804;2022-12-18T14:04:18;100533.88;;;7.53
74321;BMP280;62738;45.772;4.804;2022-12-18T14:06:47;100529.41;;;7.50
74321;BMP280;62738;45.772;4.804;2022-12-18T14:09:23;100516.63;;;7.47
74321;BMP280;62738;45.772;4.804;2022-12-18T14:11:51;100520.47;;;7.63
74321;BMP280;62738;45.772;4.804;2022-12-18T14:14:19;100515.97;;;7.60
74321;BMP280;62738;45.772;4.804;2022-12-18T14:16:46;100519.84;;;7.70
74321;BMP280;62738;45.772;4.804;2022-12-18T14:19:17;100521.38;;;8.03
74321;BMP280;62738;45.772;4.804;2022-12-18T14:21:48;100522.59;;;7.88
74321;BMP280;62738;45.772;4.804;2022-12-18T14:24:21;100530.88;;;7.88
74321;BMP280;62738;45.772;4.804;2022-12-18T14:26:49;100530.59;;;7.92
74321;BMP280;62738;45.772;4.804;2022-12-18T14:29:27;100531.72;;;8.34
74321;BMP280;62738;45.772;4.804;2022-12-18T14:32:17;100537.06;;;8.13
74321;BMP280;62738;45.772;4.804;2022-12-18T14:34:51;100540.06;;;7.97
74321;BMP280;62738;45.772;4.804;2022-12-18T14:37:22;100543.50;;;8.03
74321;BMP280;62738;45.772;4.804;2022-12-18T14:40:00;100541.03;;;7.99
74321;BMP280;62738;45.772;4.804;2022-12-18T14:42:34;100535.28;;;7.97
74321;BMP280;62738;45.772;4.804;2022-12-18T14:48:15;100522.00;;;7.96
74321;BMP280;62738;45.772;4.804;2022-12-18T14:50:59;100524.28;;;8.10
74321;BMP280;62738;45.772;4.804;2022-12-18T14:55:58;100517.06;;;7.88
74321;BMP280;62738;45.772;4.804;2022-12-18T14:58:25;100516.59;;;8.03
74321;BMP280;62738;45.772;4.804;2022-12-18T15:00:53;100507.63;;;8.16
74321;BMP280;62738;45.772;4.804;2022-12-18T15:03:21;100506.78;;;8.21
74321;BMP280;62738;45.772;4.804;2022-12-18T15:05:48;100512.19;;;8.13
74321;BMP280;62738;45.772;4.804;2022-12-18T15:08:38;100525.13;;;8.05
74321;BMP280;62738;45.772;4.804;2022-12-18T15:11:23;100536.78;;;7.98
74321;BMP280;62738;45.772;4.804;2022-12-18T15:13:51;100539.22;;;8.02
74321;BMP280;62738;45.772;4.804;2022-12-18T15:16:18;100548.50;;;8.04
74321;BMP280;62738;45.772;4.804;2022-12-18T15:18:45;100530.88;;;8.07
74321;BMP280;62738;45.772;4.804;2022-12-18T15:21:18;100529.34;;;7.93
74321;BMP280;62738;45.772;4.804;2022-12-18T15:23:46;100536.03;;;7.98
74321;BMP280;62738;45.772;4.804;2022-12-18T15:26:15;100545.50;;;8.02
74321;BMP280;62738;45.772;4.804;2022-12-18T15:28:48;100543.63;;;8.10
74321;BMP280;62738;45.772;4.804;2022-12-18T15:36:20;100555.00;;;8.07
74321;BMP280;62738;45.772;4.804;2022-12-18T15:38:54;100562.34;;;7.85
74321;BMP280;62738;45.772;4.804;2022-12-18T15:41:32;100555.50;;;7.68
74321;BMP280;62738;45.772;4.804;2022-12-18T15:44:02;100566.81;;;7.88
74321;BMP280;62738;45.772;4.804;2022-12-18T15:46:29;100584.72;;;8.01
74321;BMP280;62738;45.772;4.804;2022-12-18T15:48:57;100567.63;;;7.83
74321;BMP280;62738;45.772;4.804;2022-12-18T15:51:32;100554.94;;;7.93
74321;BMP280;62738;45.772;4.804;2022-12-18T15:54:01;100557.25;;;7.89
74321;BMP280;62738;45.772;4.804;2022-12-18T15:56:30;100540.06;;;7.97
74321;BMP280;62738;45.772;4.804;2022-12-18T15:59:18;100550.06;;;8.18
74321;BMP280;62738;45.772;4.804;2022-12-18T16:01:47;100543.38;;;8.27
74321;BMP280;62738;45.772;4.804;2022-12-18T16:04:16;100538.88;;;8.43
74321;BMP280;62738;45.772;4.804;2022-12-18T16:06:43;100535.22;;;8.93
74321;BMP280;62738;45.772;4.804;2022-12-18T16:09:29;100554.84;;;9.08
74321;BMP280;62738;45.772;4.804;2022-12-18T16:11:59;100579.97;;;9.36
74321;BMP280;62738;45.772;4.804;2022-12-18T16:14:28;100582.41;;;9.40
74321;BMP280;62738;45.772;4.804;2022-12-18T16:16:57;100593.16;;;9.57
74321;BMP280;62738;45.772;4.804;2022-12-18T16:19:24;100594.03;;;9.65
74321;BMP280;62738;45.772;4.804;2022-12-18T16:21:52;100589.94;;;9.66
74321;BMP280;62738;45.772;4.804;2022-12-18T16:24:23;100578.84;;;9.66
74321;BMP280;62738;45.772;4.804;2022-12-18T16:26:51;100576.06;;;9.79